createdAt,value
2022-09-07T00:00:40.334Z,80.83
2022-09-07T00:03:07.092Z,81.28
2022-09-07T00:05:34.286Z,81.91
2022-09-07T00:08:00.971Z,81.50
2022-09-07T00:10:27.862Z,81.39
2022-09-07T00:12:54.481Z,81.46
2022-09-07T00:15:21.009Z,81.47
2022-09-07T00:17:47.550Z,82.23
2022-09-07T00:20:15.091Z,82.01
2022-09-07T00:22:41.675Z,82.03
2022-09-07T00:25:08.657Z,81.96
2022-09-07T00:27:35.195Z,81.88
2022-09-07T00:30:01.738Z,82.11
2022-09-07T00:32:28.310Z,82.42
2022-09-07T00:34:54.861Z,82.07
2022-09-07T00:37:21.447Z,82.35
2022-09-07T00:39:48.309Z,82.48
2022-09-07T00:42:16.451Z,82.42
2022-09-07T00:44:42.920Z,82.53
2022-09-07T00:47:35.807Z,83.12
2022-09-07T00:50:11.421Z,83.10
2022-09-07T00:52:40.989Z,82.84
2022-09-07T00:55:12.212Z,83.36
2022-09-07T00:57:43.302Z,82.99
2022-09-07T01:00:10.349Z,83.45
2022-09-07T01:02:37.267Z,83.37
2022-09-07T01:05:27.617Z,83.67
2022-09-07T01:07:56.308Z,83.37
2022-09-07T01:10:26.440Z,83.40
2022-09-07T01:12:53.127Z,84.09
2022-09-07T01:15:21.963Z,84.29
2022-09-07T01:18:00.883Z,84.63
2022-09-07T01:20:51.542Z,85.00
2022-09-07T01:23:17.990Z,85.43
2022-09-07T01:25:53.786Z,85.06
2022-09-07T01:28:26.599Z,83.73
2022-09-07T01:31:27.836Z,84.20
2022-09-07T01:34:21.299Z,85.48
2022-09-07T01:37:05.285Z,84.92
2022-09-07T01:39:42.311Z,85.01
2022-09-07T01:42:13.633Z,84.84
2022-09-07T01:44:47.088Z,85.36
2022-09-07T01:47:20.646Z,85.28
2022-09-07T01:50:01.983Z,84.78
2022-09-07T01:52:38.494Z,85.24
2022-09-07T01:55:14.860Z,85.53
2022-09-07T01:57:47.981Z,85.30
2022-09-07T02:00:19.877Z,84.81
2022-09-07T02:02:59.488Z,85.12
2022-09-07T02:05:39.886Z,85.15
2022-09-07T02:08:15.031Z,85.64
2022-09-07T02:10:50.437Z,85.51
2022-09-07T02:13:36.067Z,85.57
2022-09-07T02:16:10.982Z,85.48
2022-09-07T02:18:44.052Z,85.39
2022-09-07T02:21:11.209Z,85.44
2022-09-07T02:23:49.831Z,84.36
2022-09-07T02:26:22.633Z,84.76
2022-09-07T02:28:49.689Z,84.59
2022-09-07T02:31:16.480Z,84.67
2022-09-07T02:33:43.406Z,84.98
2022-09-07T02:36:13.555Z,85.62
2022-09-07T02:38:40.121Z,84.92
2022-09-07T02:41:30.965Z,84.80
2022-09-07T02:43:58.184Z,85.61
2022-09-07T02:46:46.263Z,85.42
2022-09-07T02:49:51.382Z,85.19
2022-09-07T02:52:17.846Z,85.31
2022-09-07T02:55:09.260Z,86.05
2022-09-07T02:58:00.940Z,85.61
2022-09-07T03:00:33.641Z,86.47
2022-09-07T03:03:00.214Z,85.80
2022-09-07T03:05:42.406Z,85.74
2022-09-07T03:08:38.271Z,86.59
2022-09-07T03:11:06.339Z,86.19
2022-09-07T03:13:33.547Z,86.79
2022-09-07T03:16:00.195Z,86.59
2022-09-07T03:18:27.999Z,86.69
2022-09-07T03:20:55.346Z,87.07
2022-09-07T03:23:22.089Z,86.90
2022-09-07T03:25:49.189Z,87.64
2022-09-07T03:28:16.299Z,87.40
2022-09-07T03:30:44.440Z,86.90
2022-09-07T03:33:11.598Z,87.17
2022-09-07T03:35:38.254Z,87.74
2022-09-07T03:38:04.822Z,87.73
2022-09-07T03:40:31.416Z,88.11
2022-09-07T03:42:57.966Z,89.20
2022-09-07T03:45:24.607Z,89.35
2022-09-07T03:47:51.217Z,89.17
2022-09-07T03:50:17.954Z,88.05
2022-09-07T03:52:44.689Z,88.86
2022-09-07T03:55:11.332Z,92.88
2022-09-07T03:57:37.955Z,94.19
2022-09-07T04:00:05.633Z,96.48
2022-09-07T04:02:32.274Z,96.30
2022-09-07T04:04:58.878Z,95.17
2022-09-07T04:07:25.435Z,95.39
2022-09-07T04:09:51.963Z,96.81
2022-09-07T04:12:18.608Z,96.39
2022-09-07T04:14:46.159Z,96.19
2022-09-07T04:17:12.836Z,95.09
2022-09-07T04:19:39.438Z,95.26
2022-09-07T04:22:06.001Z,93.85
2022-09-07T04:24:32.532Z,93.54
2022-09-07T04:26:59.171Z,93.29
2022-09-07T04:29:25.832Z,93.03
2022-09-07T04:31:52.366Z,92.17
2022-09-07T04:34:18.901Z,92.00
2022-09-07T04:36:45.515Z,92.78
2022-09-07T04:39:12.299Z,92.81
2022-09-07T04:41:39.055Z,94.14
2022-09-07T04:44:05.643Z,94.96
2022-09-07T04:46:34.622Z,93.62
2022-09-07T04:49:04.282Z,92.69
2022-09-07T04:51:32.255Z,92.08
2022-09-07T04:54:01.031Z,92.90
2022-09-07T04:56:28.108Z,92.54
2022-09-07T04:58:54.662Z,93.14
2022-09-07T05:01:23.396Z,92.53
2022-09-07T05:03:50.895Z,91.80
2022-09-07T05:06:21.845Z,91.63
2022-09-07T05:08:50.883Z,91.60
2022-09-07T05:11:18.710Z,91.64
2022-09-07T05:13:45.698Z,91.00
2022-09-07T05:16:16.969Z,91.25
2022-09-07T05:18:43.527Z,91.04
2022-09-07T05:21:12.715Z,91.52
2022-09-07T05:23:39.540Z,91.61
2022-09-07T05:26:06.918Z,91.19
2022-09-07T05:28:34.534Z,91.30
2022-09-07T05:31:21.425Z,90.93
2022-09-07T05:36:39.743Z,91.19
2022-09-07T05:39:07.295Z,91.18
2022-09-07T05:41:34.281Z,90.79
2022-09-07T05:46:47.761Z,90.84
2022-09-07T05:49:14.311Z,91.44
2022-09-07T05:51:41.228Z,91.25
2022-09-07T05:54:07.828Z,90.93
2022-09-07T05:56:36.158Z,90.98
2022-09-07T05:59:03.558Z,91.19
2022-09-07T06:01:30.372Z,90.66
2022-09-07T06:03:57.020Z,92.29
2022-09-07T06:06:23.916Z,93.54
2022-09-07T06:08:52.526Z,92.30
2022-09-07T06:11:22.670Z,91.65
2022-09-07T06:13:50.041Z,90.92
2022-09-07T06:16:18.575Z,91.20
2022-09-07T06:18:48.088Z,91.10
2022-09-07T06:21:15.748Z,91.42
2022-09-07T06:23:43.571Z,91.11
2022-09-07T06:26:11.205Z,90.34
2022-09-07T06:28:40.516Z,90.48
2022-09-07T06:31:08.231Z,89.96
2022-09-07T06:33:36.052Z,89.08
2022-09-07T06:36:05.739Z,89.26
2022-09-07T06:38:34.401Z,88.70
2022-09-07T06:43:54.374Z,87.74
2022-09-07T06:49:08.786Z,87.66
2022-09-07T06:51:35.389Z,87.59
2022-09-07T06:56:48.811Z,87.12
2022-09-07T06:59:15.334Z,86.74
2022-09-07T07:01:41.985Z,86.71
2022-09-07T07:04:08.566Z,86.71
2022-09-07T07:06:36.577Z,86.46
2022-09-07T07:09:05.708Z,86.10
2022-09-07T07:11:32.408Z,85.60
2022-09-07T07:13:59.991Z,84.84
2022-09-07T07:16:26.594Z,84.25
2022-09-07T07:18:57.061Z,83.08
2022-09-07T07:21:24.093Z,82.55
2022-09-07T07:23:52.587Z,82.00
2022-09-07T07:26:21.407Z,80.80
2022-09-07T07:29:06.038Z,79.66
2022-09-07T07:31:33.714Z,78.23
2022-09-07T07:34:00.403Z,75.43
2022-09-07T07:36:28.194Z,73.96
2022-09-07T07:44:17.581Z,71.53
2022-09-07T07:46:50.773Z,66.45
2022-09-07T07:49:17.661Z,67.05
2022-09-07T07:54:34.105Z,67.62
2022-09-07T07:57:00.605Z,67.67
2022-09-07T07:59:27.168Z,66.98
2022-09-07T08:01:54.011Z,65.86
2022-09-07T08:04:20.622Z,65.15
2022-09-07T08:06:47.140Z,65.14
2022-09-07T08:09:13.687Z,65.13
2022-09-07T08:11:40.554Z,64.70
2022-09-07T08:14:08.929Z,63.71
2022-09-07T08:16:36.383Z,63.71
2022-09-07T08:19:03.478Z,63.98
2022-09-07T08:21:30.082Z,64.07
2022-09-07T08:23:56.632Z,62.55
2022-09-07T08:26:23.197Z,62.88
2022-09-07T08:28:49.760Z,62.21
2022-09-07T08:31:17.462Z,61.63
2022-09-07T08:33:44.692Z,61.99
2022-09-07T08:36:19.962Z,62.29
2022-09-07T08:38:47.501Z,63.18
2022-09-07T08:41:44.671Z,62.14
2022-09-07T08:44:56.294Z,62.08
2022-09-07T08:47:40.998Z,61.53
2022-09-07T08:50:12.762Z,62.09
2022-09-07T08:52:51.948Z,61.96
2022-09-07T08:55:27.818Z,61.29
2022-09-07T08:58:04.265Z,61.00
2022-09-07T09:00:31.501Z,60.85
2022-09-07T09:06:27.611Z,60.34
2022-09-07T09:09:13.485Z,56.44
2022-09-07T09:11:49.157Z,57.56
2022-09-07T09:14:18.734Z,55.90
2022-09-07T09:16:50.478Z,56.36
2022-09-07T09:19:39.595Z,56.75
2022-09-07T09:22:09.456Z,56.53
2022-09-07T09:24:41.112Z,57.73
2022-09-07T09:27:09.743Z,58.16
2022-09-07T09:29:36.337Z,57.07
2022-09-07T09:32:33.231Z,54.05
2022-09-07T09:35:12.604Z,54.42
2022-09-07T09:37:41.249Z,54.29
2022-09-07T09:40:22.362Z,53.57
2022-09-07T09:42:59.631Z,53.69
2022-09-07T09:45:29.972Z,53.61
2022-09-07T09:47:58.278Z,54.21
2022-09-07T09:53:42.234Z,53.50
2022-09-07T09:56:09.438Z,52.89
2022-09-07T10:01:33.603Z,53.09
2022-09-07T10:04:34.869Z,52.24
2022-09-07T10:07:08.332Z,51.36
2022-09-07T10:09:41.224Z,51.61
2022-09-07T10:12:24.632Z,51.62
2022-09-07T10:14:51.547Z,51.52
2022-09-07T10:17:30.343Z,51.35
2022-09-07T10:20:01.651Z,51.46
2022-09-07T10:22:35.762Z,50.42
2022-09-07T10:25:04.913Z,50.64
2022-09-07T10:27:36.073Z,51.63
2022-09-07T10:30:07.093Z,50.46
2022-09-07T10:33:02.530Z,50.33
2022-09-07T10:35:34.372Z,50.48
2022-09-07T10:38:13.194Z,50.83
2022-09-07T10:41:01.114Z,50.43
2022-09-07T10:43:36.612Z,50.88
2022-09-07T10:52:44.553Z,50.61
2022-09-07T10:55:20.907Z,50.26
2022-09-07T10:58:08.419Z,49.88
2022-09-07T11:01:24.303Z,50.19
2022-09-07T11:04:04.181Z,51.10
2022-09-07T11:06:30.724Z,51.57
2022-09-07T11:09:20.035Z,50.31
2022-09-07T11:12:03.569Z,50.40
2022-09-07T11:14:36.822Z,50.84
2022-09-07T11:17:11.692Z,51.07
2022-09-07T11:19:52.147Z,51.17
2022-09-07T11:22:41.792Z,50.32
2022-09-07T11:25:31.606Z,49.85
2022-09-07T11:28:09.607Z,50.53
2022-09-07T11:31:00.212Z,49.07
2022-09-07T11:34:23.914Z,48.10
2022-09-07T11:36:39.088Z,48.24
2022-09-07T11:39:17.061Z,47.68
2022-09-07T11:42:01.238Z,47.55
2022-09-07T11:44:47.881Z,47.65
2022-09-07T11:47:42.408Z,46.29
2022-09-07T11:50:17.692Z,46.41
2022-09-07T11:52:55.886Z,46.87
2022-09-07T11:55:29.520Z,46.40
2022-09-07T11:58:35.426Z,43.84
2022-09-07T12:01:04.860Z,43.79
2022-09-07T12:03:43.766Z,43.27
2022-09-07T12:06:10.281Z,41.88
2022-09-07T12:08:55.406Z,42.24
2022-09-07T12:11:31.118Z,41.41
2022-09-07T12:14:48.992Z,39.78
2022-09-07T12:17:21.835Z,40.00
2022-09-07T12:20:10.151Z,40.20
2022-09-07T12:22:37.886Z,39.50
2022-09-07T12:25:09.629Z,38.50
2022-09-07T12:27:37.922Z,37.11
2022-09-07T12:30:04.481Z,36.99
2022-09-07T12:32:54.342Z,35.55
2022-09-07T12:35:28.150Z,36.04
2022-09-07T12:38:02.400Z,35.59
2022-09-07T12:40:29.158Z,35.93
2022-09-07T12:43:14.106Z,35.16
2022-09-07T12:45:40.614Z,35.83
2022-09-07T12:48:29.517Z,34.60
2022-09-07T12:51:16.091Z,35.18
2022-09-07T12:53:48.486Z,34.72
2022-09-07T12:57:29.142Z,35.75
2022-09-07T12:59:42.303Z,34.67
2022-09-07T13:02:23.883Z,33.52
2022-09-07T13:05:18.125Z,33.75
2022-09-07T13:08:08.702Z,34.61
2022-09-07T13:10:43.167Z,35.26
2022-09-07T13:13:15.769Z,35.92
2022-09-07T13:15:49.868Z,36.27
2022-09-07T13:18:28.646Z,36.11
2022-09-07T13:21:07.047Z,37.13
2022-09-07T13:23:35.794Z,38.13
2022-09-07T13:26:03.282Z,38.08
2022-09-07T13:28:37.089Z,38.78
2022-09-07T13:31:16.882Z,39.83
2022-09-07T13:33:47.656Z,40.37
2022-09-07T13:36:47.507Z,39.87
2022-09-07T13:39:18.909Z,39.72
2022-09-07T13:41:52.351Z,39.78
2022-09-07T13:44:26.730Z,39.55
2022-09-07T13:46:58.868Z,39.84
2022-09-07T13:49:44.176Z,40.01
2022-09-07T13:52:19.274Z,39.91
2022-09-07T13:55:08.656Z,40.11
2022-09-07T13:58:11.259Z,40.34
2022-09-07T14:00:50.233Z,41.11
2022-09-07T14:03:17.024Z,41.44
2022-09-07T14:05:43.706Z,41.33
2022-09-07T14:08:29.754Z,41.45
2022-09-07T14:10:56.293Z,41.72
2022-09-07T14:13:22.850Z,41.91
2022-09-07T14:15:50.967Z,41.30
2022-09-07T14:18:31.292Z,41.44
2022-09-07T14:20:58.764Z,41.51
2022-09-07T14:23:30.046Z,41.78
2022-09-07T14:26:26.393Z,41.87
2022-09-07T14:28:54.871Z,41.71
2022-09-07T14:31:23.962Z,41.44
2022-09-07T14:34:00.523Z,41.15
2022-09-07T14:36:45.359Z,40.43
2022-09-07T14:39:16.084Z,39.01
2022-09-07T14:41:43.549Z,39.21
2022-09-07T14:44:29.005Z,37.76
2022-09-07T14:46:57.431Z,37.96
2022-09-07T14:49:24.786Z,37.77
2022-09-07T14:51:52.950Z,37.40
2022-09-07T14:54:31.874Z,36.48
2022-09-07T14:57:11.633Z,35.87
2022-09-07T14:59:44.533Z,35.84
2022-09-07T15:02:18.167Z,36.44
2022-09-07T15:04:46.608Z,36.16
2022-09-07T15:07:48.754Z,36.26
2022-09-07T15:10:21.299Z,37.05
2022-09-07T15:12:49.513Z,36.99
2022-09-07T15:15:18.732Z,37.09
2022-09-07T15:17:45.896Z,36.89
2022-09-07T15:20:35.117Z,36.99
2022-09-07T15:23:08.810Z,36.76
2022-09-07T15:25:35.698Z,36.47
2022-09-07T15:28:02.501Z,36.83
2022-09-07T15:30:29.069Z,36.71
2022-09-07T15:32:57.373Z,37.03
2022-09-07T15:35:24.540Z,36.82
2022-09-07T15:38:59.424Z,36.41
2022-09-07T15:41:04.137Z,36.80
2022-09-07T15:43:31.479Z,36.68
2022-09-07T15:45:58.228Z,36.39
2022-09-07T15:48:25.629Z,36.60
2022-09-07T15:51:01.480Z,36.30
2022-09-07T15:56:20.308Z,37.14
2022-09-07T15:58:51.801Z,37.25
2022-09-07T16:04:05.069Z,38.19
2022-09-07T16:06:31.689Z,38.23
2022-09-07T16:08:58.272Z,38.53
2022-09-07T16:11:28.119Z,38.67
2022-09-07T16:13:57.371Z,38.90
2022-09-07T16:17:25.751Z,38.88
2022-09-07T16:19:15.226Z,38.40
2022-09-07T16:21:42.866Z,38.82
2022-09-07T16:24:09.858Z,38.87
2022-09-07T16:26:36.418Z,39.12
2022-09-07T16:29:03.495Z,39.15
2022-09-07T16:31:31.412Z,39.14
2022-09-07T16:33:58.138Z,39.40
2022-09-07T16:36:24.710Z,39.98
2022-09-07T16:39:01.336Z,39.82
2022-09-07T16:41:31.998Z,39.81
2022-09-07T16:43:59.109Z,40.05
2022-09-07T16:46:28.398Z,40.13
2022-09-07T16:48:55.294Z,40.17
2022-09-07T16:51:23.212Z,40.21
2022-09-07T16:53:51.693Z,40.60
2022-09-07T16:56:20.418Z,40.76
2022-09-07T16:58:51.067Z,40.53
2022-09-07T17:01:20.613Z,41.15
2022-09-07T17:03:51.199Z,41.19
2022-09-07T17:06:19.428Z,41.38
2022-09-07T17:08:47.121Z,41.57
2022-09-07T17:11:17.187Z,41.48
2022-09-07T17:13:44.768Z,41.89
2022-09-07T17:16:17.062Z,42.04
2022-09-07T17:21:37.027Z,42.18
2022-09-07T17:24:05.380Z,42.47
2022-09-07T17:26:32.631Z,42.78
2022-09-07T17:29:00.920Z,43.19
2022-09-07T17:34:20.127Z,43.32
2022-09-07T17:36:47.116Z,43.22
2022-09-07T17:39:16.021Z,43.15
2022-09-07T17:41:44.356Z,43.28
2022-09-07T17:44:11.329Z,43.85
2022-09-07T17:46:37.829Z,43.94
2022-09-07T17:49:07.016Z,44.02
2022-09-07T17:51:33.523Z,44.30
2022-09-07T17:54:09.546Z,44.14
2022-09-07T17:56:37.093Z,44.21
2022-09-07T18:01:50.586Z,44.78
2022-09-07T18:04:17.270Z,44.76
2022-09-07T18:06:43.879Z,45.02
2022-09-07T18:09:11.631Z,45.29
2022-09-07T18:11:46.693Z,45.06
2022-09-07T18:14:14.696Z,45.71
2022-09-07T18:16:41.745Z,45.79
2022-09-07T18:19:08.728Z,45.73
2022-09-07T18:21:37.254Z,46.09
2022-09-07T18:24:11.784Z,46.05
2022-09-07T18:26:39.987Z,46.14
2022-09-07T18:29:18.662Z,45.90
2022-09-07T18:31:54.224Z,46.22
2022-09-07T18:34:20.948Z,47.04
2022-09-07T18:36:47.560Z,47.17
2022-09-07T18:39:14.105Z,47.43
2022-09-07T18:41:40.968Z,48.10
2022-09-07T18:45:27.085Z,47.69
2022-09-07T18:46:54.534Z,48.13
2022-09-07T18:49:21.102Z,47.87
2022-09-07T18:54:34.207Z,48.41
2022-09-07T18:57:00.716Z,49.41
2022-09-07T18:59:27.242Z,49.04
2022-09-07T19:01:54.097Z,49.12
2022-09-07T19:04:21.155Z,48.57
2022-09-07T19:06:47.988Z,48.33
2022-09-07T19:09:14.579Z,49.16
2022-09-07T19:11:42.443Z,49.23
2022-09-07T19:14:08.936Z,49.15
2022-09-07T19:16:36.363Z,49.18
2022-09-07T19:19:06.181Z,49.28
2022-09-07T19:21:35.759Z,49.10
2022-09-07T19:24:04.826Z,49.04
2022-09-07T19:26:34.364Z,49.34
2022-09-07T19:29:02.344Z,49.21
2022-09-07T19:31:30.948Z,49.66
2022-09-07T19:34:02.440Z,49.42
2022-09-07T19:36:33.183Z,49.74
2022-09-07T19:39:00.755Z,50.03
2022-09-07T19:41:28.279Z,49.75
2022-09-07T19:43:54.799Z,50.11
2022-09-07T19:46:24.965Z,50.25
2022-09-07T19:48:52.100Z,50.57
2022-09-07T19:51:19.919Z,50.74
2022-09-07T19:53:47.294Z,51.11
2022-09-07T19:56:16.972Z,51.29
2022-09-07T19:58:45.199Z,51.41
2022-09-07T20:01:14.254Z,51.21
2022-09-07T20:03:41.950Z,50.64
2022-09-07T20:06:11.631Z,51.27
2022-09-07T20:08:39.447Z,51.49
2022-09-07T20:11:08.547Z,51.56
2022-09-07T20:13:37.058Z,51.71
2022-09-07T20:16:13.279Z,52.20
2022-09-07T20:18:40.174Z,52.80
2022-09-07T20:21:09.414Z,52.64
2022-09-07T20:23:36.494Z,52.52
2022-09-07T20:26:05.986Z,53.06
2022-09-07T20:28:34.432Z,53.42
2022-09-07T20:31:08.178Z,53.65
2022-09-07T20:33:35.109Z,54.17
2022-09-07T20:36:06.314Z,54.39
2022-09-07T20:38:42.118Z,54.48
2022-09-07T20:41:14.667Z,54.97
2022-09-07T20:43:41.267Z,55.35
2022-09-07T20:46:09.668Z,54.98
2022-09-07T20:48:37.538Z,54.82
2022-09-07T20:51:08.132Z,55.45
2022-09-07T20:53:35.187Z,55.85
2022-09-07T20:56:07.728Z,55.35
2022-09-07T20:58:35.393Z,55.74
2022-09-07T21:01:02.875Z,55.81
2022-09-07T21:03:30.036Z,56.17
2022-09-07T21:06:01.703Z,56.27
2022-09-07T21:08:28.552Z,56.31
2022-09-07T21:10:55.265Z,55.93
2022-09-07T21:13:21.799Z,56.53
2022-09-07T21:15:48.327Z,56.69
2022-09-07T21:18:18.712Z,56.98
2022-09-07T21:21:18.469Z,57.04
2022-09-07T21:23:43.068Z,56.79
2022-09-07T21:26:09.572Z,57.54
2022-09-07T21:28:36.054Z,58.15
2022-09-07T21:31:08.080Z,58.02
2022-09-07T21:33:36.033Z,57.66
2022-09-07T21:36:07.878Z,58.74
2022-09-07T21:38:35.700Z,58.26
2022-09-07T21:41:24.713Z,59.14
2022-09-07T21:43:58.456Z,59.10
2022-09-07T21:46:26.056Z,59.16
2022-09-07T21:48:53.076Z,59.40
2022-09-07T21:51:19.584Z,59.04
2022-09-07T21:53:51.583Z,59.38
2022-09-07T21:56:18.383Z,59.39
2022-09-07T21:58:44.959Z,59.88
2022-09-07T22:01:17.224Z,59.97
2022-09-07T22:03:45.568Z,60.74
2022-09-07T22:06:12.419Z,60.70
2022-09-07T22:08:40.450Z,61.06
2022-09-07T22:11:10.575Z,61.77
2022-09-07T22:13:37.623Z,62.03
2022-09-07T22:16:05.354Z,61.98
2022-09-07T22:18:32.271Z,61.83
2022-09-07T22:21:10.743Z,62.52
2022-09-07T22:23:40.133Z,61.74
2022-09-07T22:26:07.080Z,62.41
2022-09-07T22:28:34.500Z,62.63
2022-09-07T22:31:11.070Z,63.02
2022-09-07T22:33:38.202Z,62.52
2022-09-07T22:36:11.269Z,63.18
2022-09-07T22:38:38.285Z,63.32
2022-09-07T22:41:16.114Z,63.23
2022-09-07T22:43:43.496Z,62.89
2022-09-07T22:46:11.581Z,63.84
2022-09-07T22:48:39.344Z,64.48
2022-09-07T22:51:06.450Z,64.56
2022-09-07T22:53:35.547Z,64.97
2022-09-07T22:56:26.386Z,65.15
2022-09-07T22:58:56.338Z,65.39
2022-09-07T23:01:23.646Z,65.67
2022-09-07T23:03:51.594Z,65.35
2022-09-07T23:06:26.183Z,66.00
2022-09-07T23:08:54.435Z,66.09
2022-09-07T23:11:21.974Z,66.49
2022-09-07T23:13:53.115Z,66.74
2022-09-07T23:16:20.579Z,66.89
2022-09-07T23:18:48.310Z,66.64
2022-09-07T23:21:15.136Z,66.63
2022-09-07T23:23:41.663Z,67.02
2022-09-07T23:26:08.784Z,67.26
2022-09-07T23:28:35.358Z,67.65
2022-09-07T23:31:02.112Z,67.57
2022-09-07T23:33:28.675Z,67.93
2022-09-07T23:36:01.032Z,68.00
2022-09-07T23:38:28.298Z,68.13
2022-09-07T23:40:55.703Z,68.53
2022-09-07T23:43:23.335Z,68.26
2022-09-07T23:45:50.336Z,69.02
2022-09-07T23:48:16.844Z,69.01
2022-09-07T23:50:44.770Z,67.85
2022-09-07T23:53:11.952Z,68.60
2022-09-07T23:55:38.948Z,68.80
2022-09-07T23:58:05.869Z,68.97
